Terminal Aerodrome Forecast
Issued by NWS Upton, NY

Home | Current Version | Previous Version | Text Only | Print | Product List | Glossary On
Versions: 1 2 3 4 5 6 7 8 9 10 11 12 13 14 15 16 17 18 19 20 21 22 23 24 25 26 27 28 29 30 31 32 33 34 35 36 37
000
FTUS41 KOKX 010539
TAFEWR
TAF
KEWR 010539Z 0106/0212 VRB04KT P6SM BKN250
     FM010900 03005KT P6SM SCT250
     FM011600 08007KT P6SM FEW250
     FM011800 11008KT P6SM FEW250
     FM012000 14008KT P6SM FEW250
     FM020100 08006KT P6SM FEW250
     FM020300 05005KT P6SM FEW015 FEW250
     FM020900 04005KT 5SM BR BKN015=

USA.gov is the U.S. government's official web portal to all federal, state and local government web resources and services.